KSMS

Sumter Airport

Sumter, South Carolina, USA
METAR KSMS 231455Z AUTO 00000KT 8SM BKN021 OVC029 27/21 A3012 RMK AO2
Observed Flight Rules
May-23 @ 14:55 UTC (16 minutes ago) Marginal Visual Flight Rules
Visibility Clouds
8 miles
  • Broken at 2,100' AGL
  • Overcast at 2,900' AGL
Temperatures Readings
Current 27°C / 81°F
Dewpoint 21°C / 70°F
Humidity 70%
Altimeter 30.12" Hg
Pressure 1020 hPa
Elevation 56
METAR KSMS 231455Z AUTO 00000KT 8SM BKN021 OVC029 27/21 A3012 RMK AO2
Observed Flight Rules
May-23 @ 14:55 UTC
(16 minutes ago)
MVFR
Clouds
  • Broken at 2,100' AGL
  • Overcast at 2,900' AGL
Temperature Dewpoint
27°C / 81°F 21°C / 70°F
Humidity Altimeter Pressure
70% 30.12" Hg 1020 hPa